Latest Coastal Weather Observations for St Helens

IDT60701

Issued at 6:22 pm EST Friday 22 May 2015 (issued every 10 minutes, with the page automatically refreshed every 10 minutes)

About coastal observations | Map of coastal stations | Coastal observations for TAS | Marine services | Other Formats
Station Details ID: 092120 Name: ST HELENS AERODROME Lat: -41.34 Lon: 148.28 Height: 48.0 m
Data from the previous 72 hours. | See also: Recent months at St Helens
Date/Time
EST
Temp

°C
Wind Pressure Rain
since 9am
mm
Weather Cloud Vis
km
Sea
Height
m
Swell
Dir
 
Speed
knots
Gust
knots
hPa Trend Height
m
Period
s
Dir
22/06:00pm 7.8 NW 3 5 1027.2 - 0.0 - - 10 - - - -
22/05:30pm 8.3 NW 1 4 1027.0 - 0.0 - - 10 - - - -
22/05:00pm 9.4 NNW 4 6 1026.8 - 0.0 - - 10 - - - -
22/04:30pm 10.1 N 5 9 1026.6 - 0.0 - - 10 - - - -
22/04:00pm 11.0 NNE 5 9 1026.5 - 0.0 - - 10 - - - -
22/03:30pm 11.2 NE 6 8 1026.4 - 0.0 - - 10 - - - -
22/03:00pm 11.4 NE 6 8 1026.5 - 0.0 - - 10 - - - -
22/02:30pm 12.1 ENE 5 7 1026.2 - 0.0 - - 10 - - - -
22/02:00pm 11.8 ENE 4 6 1026.4 - 0.0 - - 10 - - - -
22/01:30pm 11.7 E 5 13 1026.6 - 0.0 - - 10 - - - -
22/01:00pm 11.8 NE 2 5 1027.0 - 0.0 - - 10 - - - -
22/12:30pm 11.5 SSE 4 7 1027.2 - 0.0 - - 10 - - - -
22/12:00pm 11.1 S 5 7 1027.7 - 0.0 - - 10 - - - -
22/11:30am 11.2 S 6 11 1028.0 - 0.0 - - 10 - - - -
22/11:00am 10.3 S 8 13 1028.4 - 0.0 - - 10 - - - -
22/10:30am 9.8 SSW 4 8 1028.5 - 0.0 - - 10 - - - -
22/10:00am 9.4 SW 5 9 1028.6 - 0.0 - - 10 - - - -
22/09:30am 8.8 W 1 5 1028.6 - 0.0 - - 10 - - - -
22/09:00am 6.5 CALM 0 3 1028.8 - 0.0 Fine Partly cloudy 25 - - - -
22/08:30am 5.0 NW 5 6 1028.6 - 0.0 - - 10 - - - -
22/08:00am 4.2 NNW 6 7 1028.5 - 0.0 - - 10 - - - -
22/07:30am 4.2 NNW 6 7 1028.2 - 0.0 - - 10 - - - -
22/07:00am 4.3 NW 6 7 1028.0 - 0.0 - - 10 - - - -
22/06:30am 4.9 NW 6 7 1027.7 - 0.0 - - 10 - - - -
22/06:00am 5.7 NW 4 5 1027.7 - 0.0 - - 10 - - - -
22/05:30am 6.7 NW 4 6 1027.4 - 0.0 - - 10 - - - -
22/05:00am 7.6 SW 7 12 1027.4 - 0.0 - Partly cloudy 10 - - - -
22/04:30am 8.3 SSW 7 13 1027.3 - 0.0 - Cloudy 10 - - - -
22/04:00am 8.7 SSW 7 11 1027.2 - 0.0 - Cloudy 10 - - - -
22/03:30am 8.6 SSW 7 10 1027.4 - 0.0 - Cloudy 10 - - - -
22/03:00am 8.7 SSW 8 13 1027.7 - 0.0 - Cloudy 10 - - - -
22/02:30am 8.8 SSW 7 10 1027.8 - 0.0 - Cloudy 10 - - - -
22/02:00am 9.0 SSW 8 12 1027.7 - 0.0 - Cloudy 10 - - - -
22/01:30am 9.1 SW 9 15 1027.6 - 0.0 - Cloudy 10 - - - -
22/01:00am 9.1 SSW 8 13 1027.6 - 0.0 - Cloudy 10 - - - -
22/12:30am 9.3 SSW 8 12 1027.6 - 0.0 - Cloudy 10 - - - -
22/12:00am 9.4 SSW 8 13 1027.8 - 0.0 - Cloudy 10 - - - -
 
Date/Time
EST
Temp

°C
Wind Pressure Rain
since 9am
mm
Weather Cloud Vis
km
Sea
Height
m
Swell
Dir
 
Speed
knots
Gust
knots
hPa Trend Height
m
Period
s
Dir
21/11:30pm 9.3 SSW 7 11 1027.7 - 0.0 - Cloudy 10 - - - -
21/11:00pm 9.4 SSW 6 11 1027.8 - 0.0 - Cloudy 10 - - - -
21/10:30pm 9.6 SSW 7 11 1027.8 - 0.0 - Cloudy 10 - - - -
21/10:00pm 9.5 SSW 7 10 1027.7 - 0.0 - Cloudy 10 - - - -
21/09:30pm 9.6 SW 5 9 1027.7 - 0.0 - Cloudy 10 - - - -
21/09:00pm 9.6 SSW 6 8 1027.8 - 0.0 - Cloudy 10 - - - -
21/08:30pm 9.7 SSW 4 7 1027.6 - 0.0 - Cloudy 10 - - - -
21/08:00pm 9.6 SSW 5 8 1027.4 - 0.0 - Cloudy 10 - - - -
21/07:30pm 9.6 SSW 4 5 1027.3 - 0.0 - Cloudy 10 - - - -
21/07:00pm 9.7 SSW 5 9 1027.2 - 0.0 - Cloudy 10 - - - -
21/06:30pm 9.8 SW 5 9 1027.0 - 0.0 - Cloudy 10 - - - -
21/06:00pm 9.9 SSW 7 11 1026.9 - 0.0 - Cloudy 10 - - - -
21/05:30pm 10.1 SSW 8 11 1026.3 - 0.0 - Cloudy 10 - - - -
21/05:00pm 10.4 SSW 8 15 1026.0 - 0.0 - Cloudy 10 - - - -
21/04:30pm 10.8 S 7 12 1025.8 - 0.0 - Partly cloudy 10 - - - -
21/04:00pm 11.3 S 7 11 1025.4 - 0.0 - Cloudy 10 - - - -
21/03:30pm 11.2 S 9 15 1025.1 - 0.0 - Cloudy 10 - - - -
21/03:00pm 12.0 S 9 16 1024.9 - 0.0 - Mostly cloudy 10 - - - -
21/02:30pm 12.4 S 10 18 1024.5 - 0.0 - Cloudy 10 - - - -
21/02:00pm 12.8 S 10 18 1024.4 - 0.0 - Cloudy 10 - - - -
21/01:30pm 13.1 S 9 17 1024.4 - 0.0 - Cloudy 10 - - - -
21/01:00pm 13.0 S 10 18 1024.3 - 0.0 - Partly cloudy 10 - - - -
21/12:30pm 12.9 S 9 16 1024.4 - 0.0 - Partly cloudy 10 - - - -
21/12:00pm 12.7 S 9 17 1024.6 - 0.0 - Mostly clear 10 - - - -
21/11:30am 12.7 S 8 13 1024.6 - 0.0 - - 10 - - - -
21/11:00am 12.3 S 8 14 1024.7 - 0.0 - - 10 - - - -
21/10:30am 11.7 S 9 15 1024.6 - 0.0 - - 10 - - - -
21/10:00am 10.8 S 7 16 1024.3 - 0.0 - Partly cloudy 10 - - - -
21/09:30am 9.6 S 7 14 1024.1 - 0.0 - Cloudy 10 - - - -
21/09:00am 9.0 SSW 5 8 1024.0 - 2.6 Fine Partly cloudy 30 - - - -
21/08:30am 7.5 NW 5 7 1023.3 - 2.6 - - 10 - - - -
21/08:00am 6.8 SW 3 5 1022.7 - 2.6 - - 10 - - - -
21/07:30am 6.5 W 2 4 1022.3 - 2.6 - - 10 - - - -
21/07:00am 7.1 CALM 0 0 1021.7 - 2.6 - - 10 - - - -
21/06:30am 7.2 WSW 2 4 1021.3 - 2.6 - - 10 - - - -
21/06:00am 7.2 SSW 3 4 1021.0 - 2.6 Fine Mostly clear 25 - - - -
21/05:30am 7.8 S 2 4 1020.6 - 2.6 - - 10 - - - -
21/05:00am 8.4 S 5 8 1019.9 - 2.6 - - 10 - - - -
21/04:30am 8.8 S 7 13 1019.4 - 2.6 - Partly cloudy 10 - - - -
21/04:00am 9.6 S 7 12 1019.0 - 2.6 - Cloudy 10 - - - -
21/03:30am 9.6 S 4 7 1018.7 - 2.6 - Cloudy 10 - - - -
21/03:00am 9.7 SSW 3 5 1018.6 - 2.6 - Cloudy 10 - - - -
21/02:30am 9.9 S 5 9 1018.2 - 2.6 - Partly cloudy 10 - - - -
21/02:00am 9.6 S 5 7 1017.9 - 2.6 - Cloudy 10 - - - -
21/01:30am 9.6 SSW 1 4 1017.5 - 2.6 - Cloudy 10 - - - -
21/01:00am 9.5 SSW 4 7 1017.3 - 2.6 - Cloudy 10 - - - -
21/12:30am 9.6 S 6 9 1017.3 - 2.6 - Partly cloudy 10 - - - -
21/12:00am 9.3 S 4 6 1017.3 - 2.6 - Cloudy 10 - - - -
 
Date/Time
EST
Temp

°C
Wind Pressure Rain
since 9am
mm
Weather Cloud Vis
km
Sea
Height
m
Swell
Dir
 
Speed
knots
Gust
knots
hPa Trend Height
m
Period
s
Dir
20/11:30pm 9.5 NW 1 4 1017.0 - 2.6 - Partly cloudy 10 - - - -
20/11:00pm 9.5 SSW 2 4 1017.1 - 2.4 - Partly cloudy 10 - - - -
20/10:30pm 9.6 S 6 11 1016.9 - 1.8 - Partly cloudy 4 - - - -
20/10:28pm 9.7 S 6 11 1016.9 - 1.8 - Partly cloudy 5 - - - -
20/10:00pm 10.0 S 9 13 1016.6 - 1.4 - Partly cloudy 6 - - - -
20/09:30pm 10.3 S 4 7 1016.3 - 1.4 - Partly cloudy 10 - - - -
20/09:00pm 10.3 S 5 8 1015.9 - 1.4 - Cloudy 10 - - - -
20/08:30pm 10.2 S 3 5 1015.4 - 1.4 - Partly cloudy 10 - - - -
20/08:00pm 10.4 S 5 11 1015.0 - 1.4 - Partly cloudy 10 - - - -
20/07:30pm 10.4 S 7 11 1014.6 - 1.4 - Partly cloudy 10 - - - -
20/07:24pm 10.3 S 7 11 1014.6 - 1.4 - Partly cloudy 10 - - - -
20/07:00pm 10.3 S 7 11 1014.4 - 1.4 - Partly cloudy 8 - - - -
20/06:30pm 10.2 S 9 17 1014.1 - 1.4 - Partly cloudy 8 - - - -
20/06:06pm 10.2 S 9 15 1014.0 - 1.2 - Cloudy 6 - - - -
20/06:00pm 10.3 S 10 15 1013.8 - 1.2 - Mostly cloudy 5 - - - -
20/05:47pm 10.5 S 8 15 1013.7 - 0.8 - Cloudy 5 - - - -
20/05:30pm 10.7 S 9 15 1013.5 - 0.4 - Cloudy 10 - - - -
20/05:00pm 10.9 S 11 17 1012.9 - 0.4 - Cloudy 10 - - - -
20/04:30pm 11.2 S 9 15 1012.5 - 0.4 - Cloudy 10 - - - -
20/04:00pm 11.5 SSE 9 17 1012.3 - 0.2 - Partly cloudy 10 - - - -
20/03:30pm 11.8 SSE 11 19 1011.8 - 0.0 - Partly cloudy 10 - - - -
20/03:00pm 12.2 S 10 16 1011.3 - 0.0 - Cloudy 10 - - - -
20/02:30pm 12.5 SSE 9 16 1010.9 - 0.0 - Partly cloudy 10 - - - -
20/02:06pm 12.7 SSE 10 16 1010.7 - 0.0 - Partly cloudy 10 - - - -
20/02:00pm 12.7 S 9 16 1010.7 - 0.0 - Partly cloudy 10 - - - -
20/01:30pm 13.2 S 9 17 1010.5 - 0.0 - Partly cloudy 10 - - - -
20/01:00pm 12.9 S 11 17 1010.5 - 0.0 - Partly cloudy 10 - - - -
20/12:30pm 12.6 SSE 8 16 1010.6 - 0.0 - Partly cloudy 10 - - - -
20/12:00pm 12.4 SSE 9 14 1010.8 - 0.0 - Cloudy 10 - - - -
20/11:58am 12.4 SSE 8 14 1010.9 - 0.0 - Partly cloudy 10 - - - -
20/11:41am 12.6 SSE 5 11 1010.9 - 0.0 - Partly cloudy 10 - - - -
20/11:30am 12.6 E 1 4 1011.0 - 0.0 - Partly cloudy 10 - - - -
20/11:00am 11.2 NNW 3 5 1011.0 - 0.0 - Partly cloudy 10 - - - -
20/10:30am 10.9 NW 4 6 1010.8 - 0.0 - Partly cloudy 10 - - - -
20/10:00am 10.4 NW 2 5 1010.4 - 0.0 - Cloudy 10 - - - -
20/09:30am 10.1 CALM 0 0 1010.0 - 0.0 - Partly cloudy 10 - - - -
20/09:00am 9.6 N 2 6 1010.0 - 0.2 Fine Mostly cloudy 25 - - - -
20/08:30am 9.3 CALM 0 2 1009.7 - 0.2 - Cloudy 10 - - - -
20/08:00am 9.9 NW 4 5 1009.3 - 0.2 - - 10 - - - -
20/07:30am 9.0 NNW 5 6 1009.1 - 0.2 - - 10 - - - -
20/07:00am 8.9 NNW 6 8 1008.5 - 0.2 - - 10 - - - -
20/06:30am 10.0 CALM 0 0 1007.9 - 0.2 - - 10 - - - -
20/06:00am 10.1 NW 4 6 1007.7 - 0.2 Fine Mostly clear 25 - - - -
20/05:30am 10.0 CALM 0 0 1007.4 - 0.2 - - 10 - - - -
20/05:00am 10.4 CALM 0 0 1006.9 - 0.0 - - 10 - - - -
20/04:30am 11.0 NNW 3 5 1006.7 - 0.0 - - 10 - - - -
20/04:00am 10.7 N 2 4 1006.5 - 0.0 - - 10 - - - -
20/03:30am 11.0 WNW 3 5 1006.2 - 0.0 - Partly cloudy 10 - - - -
20/03:00am 11.0 WNW 4 7 1006.3 - 0.0 - - 10 - - - -
20/02:30am 11.1 SW 3 4 1006.3 - 0.0 - - 10 - - - -
20/02:00am 12.7 N 4 6 1006.2 - 0.0 - - 10 - - - -
20/01:30am 11.7 WNW 2 5 1006.1 - 0.0 - - 10 - - - -
20/01:00am 11.9 NW 4 7 1006.1 - 0.0 - Partly cloudy 10 - - - -
20/12:30am 12.0 WNW 3 6 1006.1 - 0.0 - Partly cloudy 10 - - - -
20/12:00am 12.1 NW 7 10 1006.3 - 0.0 - - 10 - - - -
 
Date/Time
EST
Temp

°C
Wind Pressure Rain
since 9am
mm
Weather Cloud Vis
km
Sea
Height
m
Swell
Dir
 
Speed
knots
Gust
knots
hPa Trend Height
m
Period
s
Dir
19/11:30pm 12.0 N 4 6 1006.3 - 0.0 - - 10 - - - -
19/11:00pm 11.3 NE 4 6 1006.4 - 0.0 - Partly cloudy 10 - - - -
19/10:30pm 12.3 WNW 5 8 1006.5 - 0.0 - Partly cloudy 10 - - - -
19/10:00pm 11.6 SSW 3 5 1006.6 - 0.0 - - 10 - - - -
19/09:30pm 12.2 NW 7 9 1006.4 - 0.0 - Partly cloudy 10 - - - -
19/09:00pm 12.5 NW 5 8 1006.7 - 0.0 - - 10 - - - -
19/08:30pm 12.7 WSW 3 5 1006.3 - 0.0 - Partly cloudy 10 - - - -
19/08:00pm 13.2 NW 6 12 1006.2 - 0.0 - Partly cloudy 10 - - - -
19/07:30pm 12.9 NNW 3 6 1006.1 - 0.0 - Partly cloudy 10 - - - -
19/07:00pm 13.1 NW 9 14 1005.7 - 0.0 - Partly cloudy 10 - - - -
19/06:30pm 12.8 NNW 8 11 1005.7 - 0.0 - Partly cloudy 10 - - - -

Other Formats:

Comma delimited format used in spreadsheet applications
http://www.bom.gov.au/fwo/IDT60701/IDT60701.95981.axf

JavaScript Object Notation format (JSON) in row-major order
http://www.bom.gov.au/fwo/IDT60701/IDT60701.95981.json